Ruby, LA

3:15 PM CDT on September 21, 2014 (GMT -0500)
Oakdale | Change Station
CLOSE
Current Station
Airport
Location: Oakdale,
Elevation: 108 ft
Nearby Weather Stations

Elev 108 ft 30.75 °N, 92.69 °W | Updated 20 minutes ago

Partly Cloudy
Partly Cloudy
90 °F
Feels Like 95 °F
N
9
Wind Variable Wind from NE

Today
High -- | Low -- °F
--% Chance of Precip.
Yesterday
High -- | Low -- °F
Precip. -- in
6:56 AM 7:06 PM
Waning Crescent, 5% visible
Pressure 30.00 in
Visibility 10.0 miles
Clouds Clear
Heat Index 95 °F
Dew Point 69 °F
Humidity 50%
Rainfall 0.00 in
Snow Depth Not available.
UV 7 out of 12
Pollen 10.50 out of 12
Air Quality Not available.
Flu Activity Not available.
METAR KACP 211955Z AUTO 05008KT 10SM CLR 32/21 A3000 RMK AO2 T03230208

More Conditions Fewer Conditions

Pressure 30.00 in
Visibility 10.0 miles
Clouds Clear
Heat Index 95 °F
Dew Point 69 °F
Humidity 50%
Rainfall 0.00 in
Snow Depth Not available.
UV 7 out of 12
Pollen 10.50 out of 12
Air Quality Not available.
Flu Activity Not available.
METAR KACP 211955Z AUTO 05008KT 10SM CLR 32/21 A3000 RMK AO2 T03230208

More Conditions Fewer Conditions

Nowcast | as of 2:46 PM CDT on September 21, 2014

A few light and fast moving showers will affect portions of the East Texas lakes region and central Louisiana through 4 PM. These isolated showers may last less than 10 minutes and leave around one or two hundredths of an inch.

×

10-Day Weather Forecast

Almanac

Astronomy

Sep. 21, 2014 Rise Set
Actual Time 6:56 AM CDT 7:06 PM CDT
Civil Twilight 6:32 AM CDT 7:31 PM CDT
Nautical Twilight 6:04 AM CDT 7:59 PM CDT
Astronomical Twilight 5:35 AM CDT 8:27 PM CDT
Moon 4:38 AM CDT 5:37 PM CDT
Length of Visible Light 12h 58m
Length of Day
12h 10m
Tomorrow will be 1m 52s shorter.
Waning Crescent, 5% of the Moon is Illuminated
Today
Waning Crescent
Sep 24
New
Oct 1
First Quarter
Oct 8
Full
Oct 15
Last Quarter

Today's Extremes

State Highs State Lows

Community

WunderPhotos

Upload Photos

1,755,243 photos uploaded!

Nearby

Snow Depth

Station Depth Elevation
No new snow has been reported.

Earthquake Activity

City Distance Mag. Time & Date
No recent earthquake activity has been reported nearby.
Minimum magnitude displayed is 2.5.

Coastal Water Temperatures

Place Temperature
No Stations Reporting

Nearby Weather Stations